Time;durP1;ratioP1;P1;durP2;ratioP2;P2;SDS_P1;SDS_P2;PMS_P1;PMS_P2;Temp;Humidity;BMP_temperature;BMP_pressure;BME280_temperature;BME280_humidity;BME280_pressure;Samples;Min_cycle;Max_cycle;Signal;HPM_P1;HPM_P2
2024/02/03 00:00:06;;;;;;;21.63;11.25;;;9.90;99.90;;;;;;7375594;19;20484;-70
2024/02/03 00:02:32;;;;;;;20.98;11.07;;;10.00;99.90;;;;;;7365592;19;20014;-70
2024/02/03 00:04:58;;;;;;;19.58;10.70;;;10.00;99.90;;;;;;7373849;19;20098;-70
2024/02/03 00:07:25;;;;;;;18.85;11.07;;;9.90;99.90;;;;;;7368552;19;20492;-70
2024/02/03 00:09:52;;;;;;;19.13;11.55;;;9.90;99.90;;;;;;7373528;19;20109;-70
2024/02/03 00:12:21;;;;;;;20.45;11.20;;;9.90;99.90;;;;;;7370321;19;20094;-70
2024/02/03 00:14:48;;;;;;;19.65;10.88;;;9.90;99.90;;;;;;7373977;19;20014;-70
2024/02/03 00:17:15;;;;;;;17.13;11.65;;;10.00;99.90;;;;;;7373157;19;20053;-70
2024/02/03 00:19:42;;;;;;;23.58;9.73;;;10.00;99.90;;;;;;7372866;19;20015;-70
2024/02/03 00:22:10;;;;;;;19.52;10.73;;;9.90;99.90;;;;;;7372335;19;20018;-70
2024/02/03 00:24:37;;;;;;;18.20;9.07;;;9.90;99.90;;;;;;7374692;19;20010;-70
2024/02/03 00:27:05;;;;;;;17.45;9.85;;;9.90;99.90;;;;;;7371422;19;20112;-70
2024/02/03 00:29:32;;;;;;;18.20;10.38;;;10.00;99.90;;;;;;7371616;19;20015;-70
2024/02/03 00:31:59;;;;;;;21.52;10.23;;;10.00;99.90;;;;;;7371492;19;20032;-70
2024/02/03 00:34:26;;;;;;;15.40;8.20;;;10.00;99.90;;;;;;7372574;19;20573;-70
2024/02/03 00:36:53;;;;;;;19.40;9.32;;;10.00;99.90;;;;;;7372850;19;20089;-70
2024/02/03 00:39:20;;;;;;;12.63;7.95;;;10.00;99.90;;;;;;7370645;19;20018;-70
2024/02/03 00:41:46;;;;;;;14.25;8.45;;;10.10;99.90;;;;;;7369875;19;20023;-70
2024/02/03 00:44:15;;;;;;;14.68;8.98;;;10.10;99.90;;;;;;7373675;19;20018;-70
2024/02/03 00:46:41;;;;;;;14.98;7.75;;;10.10;99.90;;;;;;7372292;19;20023;-70
2024/02/03 00:49:07;;;;;;;14.85;7.53;;;10.00;99.90;;;;;;7372427;19;20406;-70
2024/02/03 00:51:34;;;;;;;15.77;7.90;;;10.00;99.90;;;;;;7369806;19;20424;-70
2024/02/03 00:54:00;;;;;;;15.18;7.40;;;10.00;99.90;;;;;;7372706;19;20018;-70
2024/02/03 00:56:26;;;;;;;12.45;7.00;;;10.00;99.90;;;;;;7372479;19;20125;-67
2024/02/03 00:58:53;;;;;;;17.65;7.38;;;10.00;99.90;;;;;;7371170;19;20026;-67
2024/02/03 01:01:19;;;;;;;17.42;7.35;;;10.00;99.90;;;;;;7368633;19;20428;-71
2024/02/03 01:03:45;;;;;;;11.48;7.80;;;9.90;99.90;;;;;;7368855;19;20025;-71
2024/02/03 01:06:11;;;;;;;14.10;7.78;;;9.90;99.90;;;;;;7372227;19;20933;-71
2024/02/03 01:08:37;;;;;;;10.25;7.10;;;9.90;99.90;;;;;;7370404;19;20026;-71
2024/02/03 01:11:04;;;;;;;16.02;7.10;;;9.80;99.90;;;;;;7372256;19;20029;-71
2024/02/03 01:13:30;;;;;;;14.10;7.97;;;9.90;99.90;;;;;;7369777;19;20526;-71
2024/02/03 01:15:58;;;;;;;15.38;8.07;;;9.90;99.90;;;;;;7369155;19;22044;-71
2024/02/03 01:18:24;;;;;;;13.57;7.75;;;9.80;99.90;;;;;;7372313;19;20039;-71
2024/02/03 01:20:51;;;;;;;15.85;8.13;;;9.80;99.90;;;;;;7370695;19;20018;-71
2024/02/03 01:23:17;;;;;;;15.55;8.15;;;9.80;99.90;;;;;;7367518;19;20015;-71
2024/02/03 01:25:44;;;;;;;15.07;8.68;;;9.80;99.90;;;;;;7368806;19;20551;-71
2024/02/03 01:28:10;;;;;;;14.15;7.50;;;9.80;99.90;;;;;;7372950;19;20094;-67
2024/02/03 01:30:37;;;;;;;16.42;8.45;;;9.80;99.90;;;;;;7369854;19;20015;-67
2024/02/03 01:33:03;;;;;;;15.35;6.97;;;9.80;99.90;;;;;;7370778;19;20368;-67
2024/02/03 01:35:30;;;;;;;14.23;7.10;;;9.80;99.90;;;;;;7366256;19;20393;-67
2024/02/03 01:37:57;;;;;;;15.07;7.97;;;9.90;99.90;;;;;;7371270;19;20018;-70
2024/02/03 01:40:27;;;;;;;13.25;7.50;;;9.90;99.90;;;;;;7369970;19;20010;-70
2024/02/03 01:43:01;;;;;;;18.00;7.30;;;9.90;99.90;;;;;;7357737;19;20090;-70
2024/02/03 01:45:28;;;;;;;12.40;5.75;;;9.90;99.90;;;;;;7364489;19;20464;-67
2024/02/03 01:47:56;;;;;;;16.15;7.28;;;9.90;99.90;;;;;;7370805;19;20026;-67
2024/02/03 01:50:25;;;;;;;20.30;8.18;;;9.90;99.90;;;;;;7364077;19;20044;-68
2024/02/03 01:52:54;;;;;;;11.95;6.93;;;9.90;99.90;;;;;;7359772;19;20117;-71
2024/02/03 01:55:21;;;;;;;14.30;6.72;;;9.90;99.90;;;;;;7367454;19;20074;-71
2024/02/03 01:57:49;;;;;;;11.70;7.15;;;9.90;99.90;;;;;;7368492;19;20092;-67
2024/02/03 02:00:16;;;;;;;15.40;6.05;;;9.90;99.90;;;;;;7365477;19;20023;-67
2024/02/03 02:02:42;;;;;;;18.15;6.47;;;9.90;99.90;;;;;;7365479;19;20026;-71
2024/02/03 02:05:08;;;;;;;13.23;6.03;;;9.90;99.90;;;;;;7364747;19;20022;-71
2024/02/03 02:07:42;;;;;;;12.70;6.80;;;9.90;99.90;;;;;;7369675;19;20014;-67
2024/02/03 02:10:08;;;;;;;14.65;6.80;;;9.90;99.90;;;;;;7366801;19;20026;-67
2024/02/03 02:12:35;;;;;;;23.27;7.93;;;9.90;99.90;;;;;;7366790;19;20111;-70
2024/02/03 02:15:05;;;;;;;16.05;7.22;;;9.90;99.90;;;;;;7366384;19;20093;-70
2024/02/03 02:17:33;;;;;;;17.73;6.60;;;9.90;99.90;;;;;;7370064;19;20014;-70
2024/02/03 02:20:07;;;;;;;17.05;7.15;;;9.80;99.90;;;;;;7365686;19;20029;-70
2024/02/03 02:22:34;;;;;;;14.25;7.00;;;9.80;99.90;;;;;;7364524;19;20454;-70
2024/02/03 02:25:01;;;;;;;14.43;6.43;;;9.80;99.90;;;;;;7369372;19;20034;-67
2024/02/03 02:27:27;;;;;;;11.30;6.30;;;9.90;99.90;;;;;;7365353;19;20010;-66
2024/02/03 02:29:53;;;;;;;15.40;6.85;;;9.80;99.90;;;;;;7368469;19;20089;-67
2024/02/03 02:32:19;;;;;;;14.65;7.18;;;9.90;99.90;;;;;;7362099;19;20047;-67
2024/02/03 02:34:46;;;;;;;15.20;7.25;;;9.90;99.90;;;;;;7368038;19;20025;-67
2024/02/03 02:37:13;;;;;;;18.48;6.75;;;9.90;99.90;;;;;;7362702;19;20014;-67
2024/02/03 02:39:40;;;;;;;19.02;7.00;;;9.80;99.90;;;;;;7361258;19;20515;-67
2024/02/03 02:42:06;;;;;;;16.50;6.63;;;9.80;99.90;;;;;;7366348;19;20040;-70
2024/02/03 02:44:33;;;;;;;12.18;6.80;;;9.80;99.90;;;;;;7365888;19;20018;-70
2024/02/03 02:46:59;;;;;;;15.48;7.20;;;9.80;99.90;;;;;;7368369;19;20018;-70
2024/02/03 02:49:26;;;;;;;13.75;6.20;;;9.80;99.90;;;;;;7365470;19;20548;-70
2024/02/03 02:51:52;;;;;;;13.32;5.97;;;9.80;99.90;;;;;;7369230;19;20046;-71
2024/02/03 02:54:19;;;;;;;11.00;6.75;;;9.80;99.90;;;;;;7367549;19;20047;-70
2024/02/03 02:56:46;;;;;;;12.50;6.50;;;9.80;99.90;;;;;;7369226;19;20062;-70
2024/02/03 02:59:16;;;;;;;13.52;6.93;;;9.80;99.90;;;;;;7369547;19;20030;-67
2024/02/03 03:01:47;;;;;;;9.65;6.30;;;9.80;99.90;;;;;;7363437;19;20023;-67
2024/02/03 03:04:14;;;;;;;10.85;6.40;;;9.80;99.90;;;;;;7365449;19;20574;-67
2024/02/03 03:06:41;;;;;;;14.65;6.50;;;9.80;99.90;;;;;;7365058;19;20018;-67
2024/02/03 03:09:08;;;;;;;13.65;6.88;;;9.80;99.90;;;;;;7363705;19;20018;-67
2024/02/03 03:11:36;;;;;;;13.27;5.97;;;9.80;99.90;;;;;;7362781;19;20028;-70
2024/02/03 03:14:05;;;;;;;17.45;6.28;;;9.70;99.90;;;;;;7363640;19;20014;-70
2024/02/03 03:16:32;;;;;;;13.68;6.07;;;9.70;99.90;;;;;;7367121;19;20090;-70
2024/02/03 03:19:00;;;;;;;10.98;5.78;;;9.70;99.90;;;;;;7365248;19;20577;-71
2024/02/03 03:21:27;;;;;;;13.20;6.25;;;9.70;99.90;;;;;;7367484;19;20007;-70
2024/02/03 03:23:54;;;;;;;11.55;5.38;;;9.70;99.90;;;;;;7365983;19;20015;-67
2024/02/03 03:26:21;;;;;;;13.65;5.72;;;9.70;99.90;;;;;;7363931;19;20729;-70
2024/02/03 03:28:48;;;;;;;10.40;5.55;;;9.70;99.90;;;;;;7360432;19;20082;-71
2024/02/03 03:31:15;;;;;;;16.65;5.93;;;9.70;99.90;;;;;;7362430;19;20031;-70
2024/02/03 03:33:43;;;;;;;15.10;6.10;;;9.70;99.90;;;;;;7363363;19;20492;-70
2024/02/03 03:36:12;;;;;;;13.40;5.72;;;9.70;99.90;;;;;;7368190;19;20046;-70
2024/02/03 03:38:42;;;;;;;12.93;5.80;;;9.80;99.90;;;;;;7365755;19;20499;-70
2024/02/03 03:41:09;;;;;;;13.35;5.00;;;9.80;99.90;;;;;;7366294;19;20054;-71
2024/02/03 03:43:36;;;;;;;14.23;5.38;;;9.70;99.90;;;;;;7360506;19;20022;-70
2024/02/03 03:46:04;;;;;;;14.88;6.45;;;9.80;99.90;;;;;;7363658;19;20022;-70
2024/02/03 03:48:30;;;;;;;14.05;6.00;;;9.70;99.90;;;;;;7369574;19;20786;-70
2024/02/03 03:50:56;;;;;;;13.30;6.35;;;9.80;99.90;;;;;;7372677;19;20022;-67
2024/02/03 03:53:23;;;;;;;14.55;5.82;;;9.80;99.90;;;;;;7369747;19;20049;-67
2024/02/03 03:55:50;;;;;;;15.52;6.07;;;9.80;99.90;;;;;;7368435;19;20029;-67
2024/02/03 03:58:16;;;;;;;16.77;6.10;;;9.80;99.90;;;;;;7373179;19;20382;-70
2024/02/03 04:00:42;;;;;;;14.30;6.22;;;9.80;99.90;;;;;;7367417;19;20054;-70
2024/02/03 04:03:09;;;;;;;14.80;6.47;;;9.80;99.90;;;;;;7365783;19;20579;-70
2024/02/03 04:05:37;;;;;;;11.77;6.55;;;9.80;99.90;;;;;;7369777;19;20018;-70
2024/02/03 04:08:03;;;;;;;14.40;6.53;;;9.80;99.90;;;;;;7377451;19;20014;-70
2024/02/03 04:10:29;;;;;;;18.73;6.93;;;9.80;99.90;;;;;;7373090;19;20022;-70
2024/02/03 04:12:56;;;;;;;16.95;6.88;;;9.80;99.90;;;;;;7369055;19;20021;-71
2024/02/03 04:15:22;;;;;;;17.40;7.03;;;9.80;99.90;;;;;;7369026;19;20028;-67
2024/02/03 04:17:49;;;;;;;13.15;6.53;;;9.80;99.90;;;;;;7364934;19;20491;-67
2024/02/03 04:20:16;;;;;;;18.60;7.55;;;9.70;99.90;;;;;;7370165;19;20038;-70
2024/02/03 04:22:42;;;;;;;13.95;6.82;;;9.80;99.90;;;;;;7370860;19;20031;-71
2024/02/03 04:25:08;;;;;;;13.00;6.10;;;9.70;99.90;;;;;;7368662;19;20712;-70
2024/02/03 04:27:34;;;;;;;12.45;6.30;;;9.70;99.90;;;;;;7370929;19;20018;-70
2024/02/03 04:30:02;;;;;;;13.85;6.28;;;9.70;99.90;;;;;;7371031;19;20042;-66
2024/02/03 04:32:29;;;;;;;17.75;7.47;;;9.70;99.90;;;;;;7365980;19;20015;-67
2024/02/03 04:34:56;;;;;;;16.42;6.75;;;9.70;99.90;;;;;;7365532;19;20078;-67
2024/02/03 04:37:23;;;;;;;15.20;6.70;;;9.70;99.90;;;;;;7372061;19;20015;-67
2024/02/03 04:39:49;;;;;;;15.02;6.70;;;9.70;99.90;;;;;;7370449;19;20023;-67
2024/02/03 04:42:15;;;;;;;12.95;6.50;;;9.80;99.90;;;;;;7372854;19;20037;-70
2024/02/03 04:44:42;;;;;;;13.60;5.78;;;9.80;99.90;;;;;;7366033;19;20503;-70
2024/02/03 04:47:08;;;;;;;19.45;6.55;;;9.80;99.90;;;;;;7366629;19;20015;-70
2024/02/03 04:49:34;;;;;;;13.57;6.00;;;9.70;99.90;;;;;;7370070;19;20020;-70
2024/02/03 04:52:01;;;;;;;14.75;6.32;;;9.70;99.90;;;;;;7369997;19;20114;-70
2024/02/03 04:54:28;;;;;;;13.32;5.85;;;9.70;99.90;;;;;;7370209;19;20018;-67
2024/02/03 04:56:54;;;;;;;15.10;6.10;;;9.70;99.90;;;;;;7369351;19;20042;-67
2024/02/03 04:59:20;;;;;;;12.55;5.70;;;9.80;99.90;;;;;;7368839;19;20906;-67
2024/02/03 05:01:46;;;;;;;14.43;5.90;;;9.80;99.90;;;;;;7369517;19;20054;-67
2024/02/03 05:04:13;;;;;;;14.43;5.30;;;9.80;99.90;;;;;;7370369;19;20511;-67
2024/02/03 05:06:39;;;;;;;11.70;5.53;;;9.70;99.90;;;;;;7364849;19;20420;-67
2024/02/03 05:09:07;;;;;;;11.50;5.20;;;9.70;99.90;;;;;;7368999;19;20090;-67
2024/02/03 05:11:34;;;;;;;15.85;5.75;;;9.70;99.90;;;;;;7367114;19;20015;-70
2024/02/03 05:14:00;;;;;;;12.85;5.35;;;9.70;99.90;;;;;;7372754;19;20086;-70
2024/02/03 05:16:26;;;;;;;20.25;5.80;;;9.70;99.90;;;;;;7364859;19;20018;-70
2024/02/03 05:18:53;;;;;;;14.07;6.10;;;9.70;99.90;;;;;;7373258;19;20018;-67
2024/02/03 05:21:19;;;;;;;15.55;6.22;;;9.70;99.90;;;;;;7365722;19;20032;-67
2024/02/03 05:23:45;;;;;;;12.98;5.30;;;9.70;99.90;;;;;;7366047;19;20038;-70
2024/02/03 05:26:12;;;;;;;14.52;5.75;;;9.70;99.90;;;;;;7368967;19;20018;-70
2024/02/03 05:28:38;;;;;;;16.55;6.25;;;9.70;99.90;;;;;;7369746;19;20276;-70
2024/02/03 05:31:05;;;;;;;14.27;6.22;;;9.70;99.90;;;;;;7366087;19;20487;-70
2024/02/03 05:33:31;;;;;;;15.93;5.97;;;9.70;99.90;;;;;;7368062;19;20029;-67
2024/02/03 05:35:58;;;;;;;14.20;5.78;;;9.70;99.90;;;;;;7365150;19;20138;-71
2024/02/03 05:38:25;;;;;;;16.95;5.38;;;9.70;99.90;;;;;;7370812;19;20093;-67
2024/02/03 05:40:52;;;;;;;14.60;5.90;;;9.70;99.90;;;;;;7366526;19;20077;-70
2024/02/03 05:43:19;;;;;;;13.27;6.30;;;9.70;99.90;;;;;;7366297;19;20098;-67
2024/02/03 05:45:46;;;;;;;16.77;5.68;;;9.70;99.90;;;;;;7364550;19;20527;-67
2024/02/03 05:48:16;;;;;;;14.65;5.97;;;9.70;99.90;;;;;;7368203;19;20523;-70
2024/02/03 05:50:43;;;;;;;17.63;6.50;;;9.60;99.90;;;;;;7367436;19;20082;-71
2024/02/03 05:53:10;;;;;;;15.30;5.80;;;9.70;99.90;;;;;;7364810;19;20026;-69
2024/02/03 05:55:37;;;;;;;16.98;6.57;;;9.70;99.90;;;;;;7362633;19;20018;-70
2024/02/03 05:58:04;;;;;;;15.48;6.50;;;9.60;99.90;;;;;;7368642;19;20075;-70
2024/02/03 06:00:30;;;;;;;14.90;6.82;;;9.70;99.90;;;;;;7366139;19;20025;-70
2024/02/03 06:02:57;;;;;;;14.07;6.05;;;9.70;99.90;;;;;;7367024;19;20025;-70
2024/02/03 06:05:24;;;;;;;12.55;6.25;;;9.70;99.90;;;;;;7366581;19;20118;-70
2024/02/03 06:07:50;;;;;;;14.07;5.97;;;9.70;99.90;;;;;;7363967;19;20038;-70
2024/02/03 06:10:16;;;;;;;15.48;6.70;;;9.70;99.90;;;;;;7366957;19;20025;-70
2024/02/03 06:12:43;;;;;;;14.30;7.10;;;9.70;99.90;;;;;;7364477;19;20010;-67
2024/02/03 06:15:09;;;;;;;16.67;6.13;;;9.80;99.90;;;;;;7363590;19;20030;-67
2024/02/03 06:17:36;;;;;;;13.15;5.95;;;9.80;99.90;;;;;;7363141;19;20022;-67
2024/02/03 06:20:02;;;;;;;13.55;6.03;;;9.80;99.90;;;;;;7370051;19;20034;-66
2024/02/03 06:22:28;;;;;;;18.92;6.07;;;9.80;99.90;;;;;;7364284;19;20414;-67
2024/02/03 06:24:55;;;;;;;15.23;6.10;;;9.80;99.90;;;;;;7365675;19;20022;-66
2024/02/03 06:27:21;;;;;;;11.50;6.03;;;9.80;99.90;;;;;;7364958;19;20021;-67
2024/02/03 06:29:47;;;;;;;10.73;5.25;;;9.80;99.90;;;;;;7363957;19;20093;-67
2024/02/03 06:32:13;;;;;;;18.40;6.60;;;9.80;99.90;;;;;;7365834;19;20019;-66
2024/02/03 06:34:41;;;;;;;14.82;6.32;;;9.80;99.90;;;;;;7364467;19;20022;-70
2024/02/03 06:37:07;;;;;;;15.32;5.93;;;9.80;99.90;;;;;;7363796;19;21730;-69
2024/02/03 06:39:33;;;;;;;14.57;5.53;;;9.80;99.90;;;;;;7363000;19;20022;-65
2024/02/03 06:41:59;;;;;;;13.13;6.05;;;9.80;99.90;;;;;;7360463;19;20398;-67
2024/02/03 06:44:26;;;;;;;13.00;7.03;;;9.80;99.90;;;;;;7362437;19;20018;-67
2024/02/03 06:46:52;;;;;;;13.85;7.05;;;9.80;99.90;;;;;;7361698;19;20022;-68
2024/02/03 06:49:20;;;;;;;17.77;7.43;;;9.80;99.90;;;;;;7366364;19;20022;-67
2024/02/03 06:51:47;;;;;;;16.25;6.80;;;9.80;99.90;;;;;;7365818;19;20467;-67
2024/02/03 06:54:13;;;;;;;20.55;8.80;;;9.80;99.90;;;;;;7364226;19;20057;-67
2024/02/03 06:56:40;;;;;;;19.02;7.75;;;9.70;99.90;;;;;;7366704;19;20563;-67
2024/02/03 06:59:07;;;;;;;19.02;8.40;;;9.70;99.90;;;;;;7368303;19;20249;-67
2024/02/03 07:01:35;;;;;;;21.58;8.85;;;9.70;99.90;;;;;;7365658;19;20930;-68
2024/02/03 07:04:01;;;;;;;17.58;8.50;;;9.70;99.90;;;;;;7363216;19;20018;-67
2024/02/03 07:06:30;;;;;;;12.77;8.05;;;9.70;99.90;;;;;;7362793;19;20022;-67
2024/02/03 07:08:57;;;;;;;19.52;7.95;;;9.70;99.90;;;;;;7364011;19;20018;-67
2024/02/03 07:11:23;;;;;;;16.42;8.05;;;9.70;99.90;;;;;;7367889;19;20018;-67
2024/02/03 07:13:49;;;;;;;17.80;9.25;;;9.70;99.90;;;;;;7361723;19;20104;-67
2024/02/03 07:16:15;;;;;;;19.67;8.95;;;9.70;99.90;;;;;;7364710;19;20565;-67
2024/02/03 07:18:41;;;;;;;17.73;8.25;;;9.60;99.90;;;;;;7367704;19;20018;-67
2024/02/03 07:21:08;;;;;;;17.77;8.70;;;9.70;99.90;;;;;;7368853;19;20007;-67
2024/02/03 07:23:34;;;;;;;15.63;8.57;;;9.70;99.90;;;;;;7368978;19;20396;-66
2024/02/03 07:26:00;;;;;;;17.02;8.32;;;9.70;99.90;;;;;;7375035;19;20022;-67
2024/02/03 07:28:27;;;;;;;20.15;8.52;;;9.70;99.90;;;;;;7371483;19;20071;-67
2024/02/03 07:30:53;;;;;;;20.35;8.30;;;9.60;99.90;;;;;;7374127;19;20026;-67
2024/02/03 07:33:19;;;;;;;19.15;8.15;;;9.70;99.90;;;;;;7378177;19;20935;-67
2024/02/03 07:35:46;;;;;;;14.43;8.00;;;9.70;99.90;;;;;;7374576;19;20286;-67
2024/02/03 07:38:12;;;;;;;16.92;7.07;;;9.70;99.90;;;;;;7374609;19;20011;-67
2024/02/03 07:40:38;;;;;;;17.05;7.82;;;9.70;99.90;;;;;;7371269;19;20015;-66
2024/02/03 07:43:05;;;;;;;21.75;8.20;;;9.70;99.90;;;;;;7368634;19;20492;-66
2024/02/03 07:45:33;;;;;;;18.00;7.22;;;9.70;99.90;;;;;;7370157;19;20018;-67
2024/02/03 07:47:59;;;;;;;21.30;7.95;;;9.80;99.90;;;;;;7371747;19;20018;-66
2024/02/03 07:50:25;;;;;;;17.50;7.03;;;9.80;99.90;;;;;;7372865;19;20946;-67
2024/02/03 07:52:52;;;;;;;15.73;7.05;;;9.80;99.90;;;;;;7371142;19;20357;-67
2024/02/03 07:55:18;;;;;;;18.10;6.95;;;9.80;99.90;;;;;;7375264;19;20021;-67
2024/02/03 07:57:44;;;;;;;18.13;6.68;;;9.80;99.90;;;;;;7371517;19;20434;-67
2024/02/03 08:00:11;;;;;;;13.98;6.32;;;9.80;99.90;;;;;;7372564;19;20017;-66
2024/02/03 08:02:38;;;;;;;18.25;5.85;;;9.80;99.90;;;;;;7369675;19;20014;-66
2024/02/03 08:05:05;;;;;;;12.25;5.22;;;9.80;99.90;;;;;;7373381;19;20031;-66
2024/02/03 08:07:32;;;;;;;11.95;5.88;;;9.80;99.90;;;;;;7368980;19;20018;-67
2024/02/03 08:09:59;;;;;;;21.83;5.63;;;9.80;99.90;;;;;;7373448;19;20168;-67
2024/02/03 08:12:26;;;;;;;19.77;5.85;;;9.80;99.90;;;;;;7371568;19;20097;-67
2024/02/03 08:14:53;;;;;;;16.85;5.47;;;9.80;99.90;;;;;;7374922;19;20035;-67
2024/02/03 08:17:20;;;;;;;13.85;6.75;;;9.80;99.90;;;;;;7372889;19;20026;-66
2024/02/03 08:19:47;;;;;;;19.52;6.00;;;9.80;99.90;;;;;;7375185;19;20027;-67
2024/02/03 08:22:14;;;;;;;19.17;7.35;;;9.80;99.90;;;;;;7372809;19;20174;-67
2024/02/03 08:24:41;;;;;;;12.98;6.25;;;9.80;99.90;;;;;;7370312;19;20019;-67
2024/02/03 08:27:08;;;;;;;20.48;6.90;;;9.80;99.90;;;;;;7371237;19;20019;-66
2024/02/03 08:29:35;;;;;;;13.93;5.72;;;9.80;99.90;;;;;;7373059;19;20021;-66
2024/02/03 08:32:03;;;;;;;18.60;7.13;;;9.80;99.90;;;;;;7370291;19;20415;-64
2024/02/03 08:34:30;;;;;;;16.65;6.50;;;9.80;99.90;;;;;;7371431;19;20029;-64
2024/02/03 08:36:57;;;;;;;15.13;5.80;;;9.80;99.90;;;;;;7369611;19;21271;-64
2024/02/03 08:39:24;;;;;;;17.58;6.20;;;9.90;99.90;;;;;;7370627;19;20018;-64
2024/02/03 08:41:50;;;;;;;16.75;5.85;;;9.80;99.90;;;;;;7373725;19;20525;-64
2024/02/03 08:44:16;;;;;;;15.32;5.93;;;9.90;99.90;;;;;;7369060;19;20018;-64
2024/02/03 08:46:42;;;;;;;12.95;5.75;;;9.90;99.90;;;;;;7372499;19;20035;-66
2024/02/03 08:49:08;;;;;;;13.20;5.75;;;9.90;99.90;;;;;;7370359;19;20019;-66
2024/02/03 08:51:35;;;;;;;16.92;6.20;;;9.90;99.90;;;;;;7374368;19;20022;-65
2024/02/03 08:54:01;;;;;;;14.05;5.43;;;10.00;99.90;;;;;;7374908;19;20022;-66
2024/02/03 08:56:27;;;;;;;14.05;5.38;;;10.00;99.90;;;;;;7372191;19;20918;-66
2024/02/03 08:58:55;;;;;;;13.25;5.03;;;10.00;99.90;;;;;;7369950;19;20065;-67
2024/02/03 09:01:21;;;;;;;17.40;5.18;;;10.00;99.90;;;;;;7371258;19;20018;-66
2024/02/03 09:03:48;;;;;;;14.25;5.05;;;10.10;99.90;;;;;;7368019;19;20029;-66
2024/02/03 09:06:14;;;;;;;12.85;5.10;;;10.10;99.90;;;;;;7374270;19;20026;-65
2024/02/03 09:08:40;;;;;;;13.65;5.20;;;10.20;99.90;;;;;;7371770;19;20018;-66
2024/02/03 09:11:07;;;;;;;14.15;4.93;;;10.20;99.90;;;;;;7374652;19;20059;-66
2024/02/03 09:13:33;;;;;;;13.38;5.30;;;10.20;99.90;;;;;;7372229;19;20073;-66
2024/02/03 09:15:59;;;;;;;14.80;5.22;;;10.30;99.90;;;;;;7368473;19;20014;-65
2024/02/03 09:18:25;;;;;;;15.77;4.45;;;10.20;99.90;;;;;;7372235;19;20027;-64
2024/02/03 09:20:51;;;;;;;16.77;5.95;;;10.20;99.90;;;;;;7370348;19;20030;-65
2024/02/03 09:23:18;;;;;;;16.50;4.97;;;10.30;99.90;;;;;;7370596;19;20015;-64
2024/02/03 09:25:44;;;;;;;14.95;5.43;;;10.30;99.90;;;;;;7369795;19;20026;-64
2024/02/03 09:28:10;;;;;;;15.82;4.53;;;10.30;99.90;;;;;;7369990;19;20035;-70
2024/02/03 09:30:36;;;;;;;13.18;5.13;;;10.30;99.90;;;;;;7372543;19;20006;-64
2024/02/03 09:33:03;;;;;;;18.42;5.63;;;10.30;99.90;;;;;;7372876;19;20019;-65
2024/02/03 09:35:29;;;;;;;12.15;4.63;;;10.30;99.90;;;;;;7373195;19;20594;-65
2024/02/03 09:37:56;;;;;;;12.57;4.80;;;10.30;99.90;;;;;;7368036;19;20018;-63
2024/02/03 09:40:23;;;;;;;16.05;5.45;;;10.40;99.90;;;;;;7368260;19;20022;-64
2024/02/03 09:42:51;;;;;;;13.05;5.07;;;10.40;99.90;;;;;;7368764;19;20547;-65
2024/02/03 09:45:22;;;;;;;14.35;5.15;;;10.40;99.90;;;;;;7368925;19;20019;-64
2024/02/03 09:47:49;;;;;;;13.13;5.25;;;10.40;99.90;;;;;;7366140;19;20685;-64
2024/02/03 09:50:17;;;;;;;13.30;5.05;;;10.50;99.90;;;;;;7373020;19;20090;-65
2024/02/03 09:52:45;;;;;;;12.98;4.28;;;10.50;99.90;;;;;;7369016;19;20010;-65
2024/02/03 09:55:12;;;;;;;13.02;5.00;;;10.60;99.90;;;;;;7368990;19;20910;-64
2024/02/03 09:57:39;;;;;;;10.90;4.00;;;10.70;99.90;;;;;;7367691;19;20021;-66
2024/02/03 10:00:07;;;;;;;11.40;4.65;;;10.70;99.90;;;;;;7371851;19;20829;-65
2024/02/03 10:02:35;;;;;;;14.73;4.82;;;10.70;99.90;;;;;;7369285;19;20074;-66
2024/02/03 10:05:02;;;;;;;15.15;4.65;;;10.70;99.90;;;;;;7369533;19;20028;-66
2024/02/03 10:07:29;;;;;;;12.20;4.68;;;10.70;99.90;;;;;;7366486;19;21998;-66
2024/02/03 10:10:06;;;;;;;10.63;4.53;;;10.70;99.90;;;;;;7371204;19;20146;-66
2024/02/03 10:12:33;;;;;;;14.32;5.00;;;10.70;99.90;;;;;;7367326;19;20010;-65
2024/02/03 10:15:04;;;;;;;11.80;4.70;;;10.80;99.90;;;;;;7370047;19;20019;-65
2024/02/03 10:17:32;;;;;;;11.75;4.65;;;10.80;99.90;;;;;;7370194;19;20604;-65
2024/02/03 10:19:58;;;;;;;12.05;4.18;;;10.90;99.90;;;;;;7367339;19;20014;-65
2024/02/03 10:22:26;;;;;;;11.98;4.85;;;10.90;99.90;;;;;;7370443;19;20842;-65
2024/02/03 10:24:58;;;;;;;11.43;4.65;;;10.90;99.90;;;;;;7368466;19;20119;-64
2024/02/03 10:27:24;;;;;;;;;;;10.90;99.90;;;;;;7369958;19;20042;-64
2024/02/03 10:29:56;;;;;;;13.68;5.70;;;10.90;99.90;;;;;;7368267;19;20355;-64
2024/02/03 10:32:22;;;;;;;14.82;5.70;;;11.00;99.90;;;;;;7365626;19;20022;-64
2024/02/03 10:34:53;;;;;;;13.13;5.20;;;11.00;99.90;;;;;;7366978;19;20018;-65
2024/02/03 10:37:19;;;;;;;15.60;5.35;;;11.00;99.90;;;;;;7367673;19;20123;-65
2024/02/03 10:39:46;;;;;;;12.55;5.47;;;11.00;99.90;;;;;;7367353;19;20064;-64
2024/02/03 10:42:21;;;;;;;14.68;5.70;;;11.00;99.90;;;;;;7369570;19;20035;-65
2024/02/03 10:44:49;;;;;;;12.50;5.68;;;11.00;99.90;;;;;;7365766;19;20023;-66
2024/02/03 10:47:23;;;;;;;13.13;4.93;;;11.00;99.90;;;;;;7368995;19;20018;-66
2024/02/03 10:49:49;;;;;;;16.15;4.60;;;11.00;99.90;;;;;;7364840;19;20039;-65
2024/02/03 10:52:19;;;;;;;12.93;5.13;;;11.00;99.90;;;;;;7368576;19;21765;-66
2024/02/03 10:54:51;;;;;;;13.10;4.80;;;11.10;99.90;;;;;;7366354;19;20022;-66
2024/02/03 10:57:17;;;;;;;12.80;4.40;;;11.10;99.90;;;;;;7376919;19;20014;-64
2024/02/03 10:59:44;;;;;;;14.95;4.57;;;11.10;99.90;;;;;;7371137;19;20011;-65
2024/02/03 11:02:19;;;;;;;15.45;4.80;;;11.20;99.90;;;;;;7377149;19;20011;-64
2024/02/03 11:04:52;;;;;;;11.77;4.97;;;11.20;99.90;;;;;;7372105;19;20098;-64
2024/02/03 11:07:25;;;;;;;15.60;4.72;;;11.20;99.90;;;;;;7375725;19;20023;-65
2024/02/03 11:09:59;;;;;;;14.18;4.90;;;11.20;99.90;;;;;;7371638;19;20048;-66
2024/02/03 11:12:34;;;;;;;11.02;4.38;;;11.30;99.90;;;;;;7377232;19;20026;-65
2024/02/03 11:15:00;;;;;;;11.05;4.07;;;11.30;99.90;;;;;;7374945;19;20022;-65
2024/02/03 11:17:32;;;;;;;11.27;3.88;;;11.30;99.90;;;;;;7372560;19;20030;-66
2024/02/03 11:20:03;;;;;;;10.88;4.50;;;11.40;99.90;;;;;;7372458;19;20007;-65
2024/02/03 11:22:29;;;;;;;11.23;3.85;;;11.40;99.90;;;;;;7376882;19;20403;-65
2024/02/03 11:24:56;;;;;;;13.27;3.95;;;11.40;99.90;;;;;;7376139;19;20013;-64
2024/02/03 11:27:22;;;;;;;10.48;4.10;;;11.40;99.90;;;;;;7376266;19;20018;-64
2024/02/03 11:29:48;;;;;;;14.75;4.00;;;11.30;99.90;;;;;;7375610;19;21089;-64
2024/02/03 11:32:15;;;;;;;12.30;4.65;;;11.40;99.90;;;;;;7372223;19;20467;-64
2024/02/03 11:34:41;;;;;;;8.75;3.80;;;11.40;99.90;;;;;;7375585;19;20026;-64
2024/02/03 11:37:13;;;;;;;16.75;4.30;;;11.40;99.90;;;;;;7370967;19;20030;-64
2024/02/03 11:39:40;;;;;;;15.02;4.88;;;11.30;99.90;;;;;;7372492;19;20025;-65
2024/02/03 11:42:09;;;;;;;10.30;4.22;;;11.40;99.90;;;;;;7373214;19;20086;-66
2024/02/03 11:44:52;;;;;;;15.80;4.82;;;11.40;99.90;;;;;;7371175;19;20063;-66
2024/02/03 11:47:20;;;;;;;10.02;4.22;;;11.40;99.90;;;;;;7372725;19;20041;-65
2024/02/03 11:49:46;;;;;;;12.63;4.97;;;11.40;99.90;;;;;;7371755;19;20034;-65
2024/02/03 11:52:13;;;;;;;13.27;4.38;;;11.50;99.90;;;;;;7373180;19;20756;-63
2024/02/03 11:54:39;;;;;;;12.63;5.57;;;11.60;99.90;;;;;;7371867;19;20602;-64
2024/02/03 11:57:05;;;;;;;13.40;4.00;;;11.70;99.90;;;;;;7374129;19;20085;-64
2024/02/03 11:59:32;;;;;;;13.02;4.35;;;11.70;99.90;;;;;;7373467;19;20031;-64
2024/02/03 12:01:59;;;;;;;12.27;3.53;;;11.70;99.90;;;;;;7371948;19;20043;-64
2024/02/03 12:04:27;;;;;;;13.52;4.43;;;11.70;99.90;;;;;;7373115;19;20026;-64
2024/02/03 12:06:56;;;;;;;12.25;3.95;;;11.60;99.90;;;;;;7373492;19;20014;-65
2024/02/03 12:09:23;;;;;;;12.27;4.55;;;11.60;99.90;;;;;;7372436;19;20022;-64
2024/02/03 12:11:51;;;;;;;18.30;5.38;;;11.50;99.90;;;;;;7369643;19;20043;-64
2024/02/03 12:14:18;;;;;;;7.82;3.50;;;11.60;99.90;;;;;;7372776;19;20019;-65
2024/02/03 12:16:47;;;;;;;14.48;4.95;;;11.60;99.90;;;;;;7370404;19;20817;-65
2024/02/03 12:19:14;;;;;;;15.75;4.43;;;11.60;99.90;;;;;;7373092;19;20078;-65
2024/02/03 12:21:43;;;;;;;15.75;4.65;;;11.50;99.90;;;;;;7367612;19;20052;-66
2024/02/03 12:24:11;;;;;;;13.65;4.47;;;11.50;99.90;;;;;;7371970;19;20074;-65
2024/02/03 12:26:42;;;;;;;11.02;4.43;;;11.50;99.90;;;;;;7372984;19;20021;-66
2024/02/03 12:29:09;;;;;;;16.65;4.97;;;11.40;99.90;;;;;;7375208;19;20177;-65
2024/02/03 12:31:36;;;;;;;10.25;3.95;;;11.30;99.90;;;;;;7370959;19;20520;-64
2024/02/03 12:34:03;;;;;;;13.85;4.05;;;11.30;99.90;;;;;;7373746;19;20048;-64
2024/02/03 12:36:30;;;;;;;13.77;3.88;;;11.30;99.90;;;;;;7373306;19;20532;-64
2024/02/03 12:38:58;;;;;;;11.35;4.03;;;11.30;99.90;;;;;;7372583;19;20029;-64
2024/02/03 12:41:26;;;;;;;10.98;4.70;;;11.30;99.90;;;;;;7372710;19;20022;-64